Pular para o conteúdo principal

INCIDENTE COM BOEING DA DELTA AIRLINES EM BUENOS AIRES




Um Boeing 767-300 da delta Airlines, registro N191DN, realizando voo DL-101 (dep 20 de janeiro) a partir de Atlanta, GA (EUA) para Buenos Aires Ezeiza, BA (Argentina), quando na aproximação para o aeroporto de Buenos Aires a tripulação encontrou turbulência severa e abandonou o procedimento a 4500 pés MSL. Foi observado danos na asa direita próximo ao motor.

A aeronave alternou para o aeroporto de Montevidéu (Uruguai) e 30 minutos depois pousou na pista 06.
 
Os passageiros disseram ter visto faíscas, possivelmente relâmpago, e uma parte voando para fora da direita.
 
Metar às 7:30 Ezeira Acerca LT (10:30 Z), que mostrou uma tempestade no aeroporto com rajadas de vento de 48 nós:


 SAEZ 211043Z 25032G48KT 210V280 2900 TSRA FEW003 SCT030 FEW040CB BKN050 22/20 Q1004
SAEZ 211035Z 25035KT 6000 TSRA FEW030 FEW040CB BKN050 26/22 Q1003
SAEZ 211000Z 34010KT 300V020 9999 TS FEW050CB BKN200 28/22 Q1000
SAEZ 210900Z 36010KT 300V050 9999 TS FEW050CB SCT100 28/22 Q0999


fonte/ElPais/ASN/AvHerald/foto/via Twitter

Comentários

Postagens mais visitadas deste blog

AVIÃO COM O SENADOR AÉCIO NEVES FAZ POUSO DE EMERGÊNCIA NO AEROPORTO DE GUARULHOS

Imagem com a aeronave em que estaria Aécio, fora da pista, e que circula na internet
O avião em que estava o senador Aécio Neves (PSDB) precisou fazer um pouso de emergência no aeroporto internacional de Guarulhos na noite de quinta-feira (9), informou sua assessoria de imprensa.
Já era noite quando a aeronave, um táxi aéreo fretado pelo PSDB, saiu de Brasília com destino a São Paulo. Os pilotos, percebendo que um pedaço do pneu havia ficado na pista, teriam solicitado autorização para pousar em Cumbica, ao invés de Congonhas, por ter uma pista maior. Ao aterrissar, no entanto, o trem de pouso teria se quebrado, vindo o avião a sair da pista.
Apenas Aécio e a tripulação estavam a bordo. Segundo a assessoria, nem ele nem os pilotos se feriram.
O senador veio para São Paulo porque tem reunião agendada com o ex-presidente Fernando Henrique Cardoso na manhã desta sexta (10). Apesar do incidente, o encontro foi mantido.
Fernanda Carvalho/O Tempo/Estadão Conteúdo
fonte/foto/UOL

Da…

VÍDEOS DO ACIDENTE COM BOEING 737 DA PERUVIAN AIRLINES EM JAUJA